LICC/CTA METAR and TAF weather

Enter ICAO airport designator
Station Type Date Time Source
LICC METAR 2020/11/27 03:20 UTC NOAA

LICC 270320Z 22004KT 7000 -RA BKN025 11/11 Q1022


Station Type Date Time Source
LICC Decoded METAR 2020/11/27 03:20 UTC NOAA

Catania / Fontanarossa, Italy (LICC) 37-28N 015-03E 17M
Nov 26, 2020 - 10:20 PM EST / 2020.11.27 0320 UTC
Wind: from the SW (220 degrees) at 5 MPH (4 KT):0
Visibility: 4 mile(s):0
Sky conditions: mostly cloudy
Weather: light rain
Temperature: 51 F (11 C)
Dew Point: 51 F (11 C)
Relative Humidity: 100%
Pressure (altimeter): 30.18 in. Hg (1022 hPa)
ob: LICC 270320Z 22004KT 7000 -RA BKN025 11/11 Q1022
cycle: 3

Station Type Date Time Source
LICC TAF 2020/11/26 18:21 UTC NOAA

TAF LICC 261700Z 2618/2718 VRB05KT 9999 SCT030
BECMG 2710/2712 09012KT

Example: see airport list